<?xml version="1.0" encoding="UTF-8" standalone="no" ?>
<gpx xmlns="http://www.topografix.com/GPX/1/1" xmlns:xsi="http://www.w3.org/2001/XMLSchema-instance" xsi:schemaLocation="http://www.topografix.com/GPX/1/1 http://www.topografix.com/GPX/1/1/gpx.xsd" version="1.1" creator="VisuGPX - https://www.visugpx.com">
  <metadata>
    <name>boucles beaumont</name>
    <desc><![CDATA[boucles beaumont du périgord]]></desc>
  </metadata>
  <trk>
    <name><![CDATA[BBmt52]]></name>
    <trkseg>
      <trkpt lat="44.76848" lon="0.75648">
        <ele>101</ele>
        <time>2009-01-15T13:59:05Z</time>
      </trkpt>
      <trkpt lat="44.76825" lon="0.7565">
        <ele>101</ele>
        <time>2009-01-15T13:59:11Z</time>
      </trkpt>
      <trkpt lat="44.76805" lon="0.75653">
        <ele>102</ele>
        <time>2009-01-15T13:59:16Z</time>
      </trkpt>
      <trkpt lat="44.76785" lon="0.75653">
        <ele>114</ele>
        <time>2009-01-15T14:00:35Z</time>
      </trkpt>
      <trkpt lat="44.7676" lon="0.75658">
        <ele>115</ele>
        <time>2009-01-15T14:00:40Z</time>
      </trkpt>
      <trkpt lat="44.7674" lon="0.75658">
        <ele>115</ele>
        <time>2009-01-15T14:00:43Z</time>
      </trkpt>
      <trkpt lat="44.76715" lon="0.75658">
        <ele>116</ele>
        <time>2009-01-15T14:00:46Z</time>
      </trkpt>
      <trkpt lat="44.76688" lon="0.75658">
        <ele>117</ele>
        <time>2009-01-15T14:00:49Z</time>
      </trkpt>
      <trkpt lat="44.76663" lon="0.75658">
        <ele>117</ele>
        <time>2009-01-15T14:00:52Z</time>
      </trkpt>
      <trkpt lat="44.76638" lon="0.75655">
        <ele>117</ele>
        <time>2009-01-15T14:00:55Z</time>
      </trkpt>
      <trkpt lat="44.7661" lon="0.75655">
        <ele>117</ele>
        <time>2009-01-15T14:00:58Z</time>
      </trkpt>
      <trkpt lat="44.76585" lon="0.75655">
        <ele>118</ele>
        <time>2009-01-15T14:01:01Z</time>
      </trkpt>
      <trkpt lat="44.76558" lon="0.75655">
        <ele>120</ele>
        <time>2009-01-15T14:01:04Z</time>
      </trkpt>
      <trkpt lat="44.76533" lon="0.75655">
        <ele>119</ele>
        <time>2009-01-15T14:01:07Z</time>
      </trkpt>
      <trkpt lat="44.76505" lon="0.75653">
        <ele>115</ele>
        <time>2009-01-15T14:01:10Z</time>
      </trkpt>
      <trkpt lat="44.76485" lon="0.7565">
        <ele>113</ele>
        <time>2009-01-15T14:01:12Z</time>
      </trkpt>
      <trkpt lat="44.76463" lon="0.7565">
        <ele>112</ele>
        <time>2009-01-15T14:01:14Z</time>
      </trkpt>
      <trkpt lat="44.7644" lon="0.75648">
        <ele>111</ele>
        <time>2009-01-15T14:01:16Z</time>
      </trkpt>
      <trkpt lat="44.7641" lon="0.75645">
        <ele>110</ele>
        <time>2009-01-15T14:01:19Z</time>
      </trkpt>
      <trkpt lat="44.76388" lon="0.75645">
        <ele>109</ele>
        <time>2009-01-15T14:01:21Z</time>
      </trkpt>
      <trkpt lat="44.76368" lon="0.75643">
        <ele>109</ele>
        <time>2009-01-15T14:01:23Z</time>
      </trkpt>
      <trkpt lat="44.7634" lon="0.75643">
        <ele>108</ele>
        <time>2009-01-15T14:01:26Z</time>
      </trkpt>
      <trkpt lat="44.7632" lon="0.75643">
        <ele>109</ele>
        <time>2009-01-15T14:01:29Z</time>
      </trkpt>
      <trkpt lat="44.763" lon="0.7564">
        <ele>111</ele>
        <time>2009-01-15T14:01:33Z</time>
      </trkpt>
      <trkpt lat="44.76278" lon="0.7564">
        <ele>112</ele>
        <time>2009-01-15T14:01:38Z</time>
      </trkpt>
      <trkpt lat="44.76258" lon="0.75638">
        <ele>114</ele>
        <time>2009-01-15T14:01:46Z</time>
      </trkpt>
      <trkpt lat="44.76238" lon="0.75633">
        <ele>115</ele>
        <time>2009-01-15T14:01:59Z</time>
      </trkpt>
      <trkpt lat="44.7622" lon="0.75623">
        <ele>121</ele>
        <time>2009-01-15T14:02:04Z</time>
      </trkpt>
      <trkpt lat="44.76203" lon="0.75615">
        <ele>123</ele>
        <time>2009-01-15T14:02:09Z</time>
      </trkpt>
      <trkpt lat="44.76183" lon="0.75623">
        <ele>128</ele>
        <time>2009-01-15T14:02:14Z</time>
      </trkpt>
      <trkpt lat="44.76173" lon="0.75648">
        <ele>133</ele>
        <time>2009-01-15T14:02:20Z</time>
      </trkpt>
      <trkpt lat="44.76158" lon="0.75665">
        <ele>133</ele>
        <time>2009-01-15T14:02:25Z</time>
      </trkpt>
      <trkpt lat="44.76138" lon="0.75665">
        <ele>133</ele>
        <time>2009-01-15T14:02:30Z</time>
      </trkpt>
      <trkpt lat="44.76118" lon="0.75655">
        <ele>134</ele>
        <time>2009-01-15T14:02:34Z</time>
      </trkpt>
      <trkpt lat="44.76095" lon="0.75645">
        <ele>134</ele>
        <time>2009-01-15T14:02:38Z</time>
      </trkpt>
      <trkpt lat="44.7607" lon="0.75638">
        <ele>136</ele>
        <time>2009-01-15T14:02:42Z</time>
      </trkpt>
      <trkpt lat="44.7605" lon="0.75638">
        <ele>138</ele>
        <time>2009-01-15T14:02:45Z</time>
      </trkpt>
      <trkpt lat="44.7603" lon="0.75638">
        <ele>139</ele>
        <time>2009-01-15T14:02:48Z</time>
      </trkpt>
      <trkpt lat="44.7601" lon="0.75635">
        <ele>138</ele>
        <time>2009-01-15T14:02:52Z</time>
      </trkpt>
      <trkpt lat="44.75883" lon="0.7567">
        <ele>148</ele>
        <time>2009-01-15T14:17:59Z</time>
      </trkpt>
      <trkpt lat="44.75878" lon="0.75645">
        <ele>148</ele>
        <time>2009-01-15T14:18:10Z</time>
      </trkpt>
      <trkpt lat="44.75873" lon="0.75618">
        <ele>152</ele>
        <time>2009-01-15T14:18:14Z</time>
      </trkpt>
      <trkpt lat="44.7586" lon="0.75588">
        <ele>152</ele>
        <time>2009-01-15T14:18:18Z</time>
      </trkpt>
      <trkpt lat="44.75848" lon="0.75565">
        <ele>153</ele>
        <time>2009-01-15T14:18:21Z</time>
      </trkpt>
      <trkpt lat="44.75835" lon="0.75545">
        <ele>152</ele>
        <time>2009-01-15T14:18:24Z</time>
      </trkpt>
      <trkpt lat="44.7582" lon="0.75525">
        <ele>153</ele>
        <time>2009-01-15T14:18:27Z</time>
      </trkpt>
      <trkpt lat="44.75803" lon="0.75508">
        <ele>154</ele>
        <time>2009-01-15T14:18:30Z</time>
      </trkpt>
      <trkpt lat="44.75785" lon="0.75495">
        <ele>155</ele>
        <time>2009-01-15T14:18:33Z</time>
      </trkpt>
      <trkpt lat="44.75768" lon="0.75485">
        <ele>153</ele>
        <time>2009-01-15T14:18:36Z</time>
      </trkpt>
      <trkpt lat="44.7575" lon="0.75475">
        <ele>154</ele>
        <time>2009-01-15T14:18:39Z</time>
      </trkpt>
      <trkpt lat="44.7573" lon="0.75465">
        <ele>154</ele>
        <time>2009-01-15T14:18:42Z</time>
      </trkpt>
      <trkpt lat="44.7571" lon="0.75455">
        <ele>156</ele>
        <time>2009-01-15T14:18:45Z</time>
      </trkpt>
      <trkpt lat="44.7569" lon="0.75448">
        <ele>157</ele>
        <time>2009-01-15T14:18:48Z</time>
      </trkpt>
      <trkpt lat="44.75668" lon="0.75443">
        <ele>158</ele>
        <time>2009-01-15T14:18:51Z</time>
      </trkpt>
      <trkpt lat="44.75645" lon="0.75438">
        <ele>158</ele>
        <time>2009-01-15T14:18:54Z</time>
      </trkpt>
      <trkpt lat="44.75623" lon="0.75433">
        <ele>158</ele>
        <time>2009-01-15T14:18:57Z</time>
      </trkpt>
      <trkpt lat="44.75603" lon="0.75425">
        <ele>158</ele>
        <time>2009-01-15T14:18:59Z</time>
      </trkpt>
      <trkpt lat="44.75583" lon="0.75413">
        <ele>158</ele>
        <time>2009-01-15T14:19:03Z</time>
      </trkpt>
      <trkpt lat="44.75563" lon="0.75398">
        <ele>157</ele>
        <time>2009-01-15T14:19:06Z</time>
      </trkpt>
      <trkpt lat="44.75543" lon="0.75375">
        <ele>157</ele>
        <time>2009-01-15T14:19:09Z</time>
      </trkpt>
      <trkpt lat="44.75523" lon="0.7535">
        <ele>158</ele>
        <time>2009-01-15T14:19:12Z</time>
      </trkpt>
      <trkpt lat="44.75508" lon="0.7532">
        <ele>157</ele>
        <time>2009-01-15T14:19:15Z</time>
      </trkpt>
      <trkpt lat="44.75495" lon="0.75288">
        <ele>157</ele>
        <time>2009-01-15T14:19:18Z</time>
      </trkpt>
      <trkpt lat="44.75483" lon="0.75255">
        <ele>157</ele>
        <time>2009-01-15T14:19:21Z</time>
      </trkpt>
      <trkpt lat="44.75473" lon="0.7522">
        <ele>156</ele>
        <time>2009-01-15T14:19:24Z</time>
      </trkpt>
      <trkpt lat="44.75463" lon="0.7519">
        <ele>156</ele>
        <time>2009-01-15T14:19:27Z</time>
      </trkpt>
      <trkpt lat="44.75448" lon="0.75173">
        <ele>155</ele>
        <time>2009-01-15T14:19:37Z</time>
      </trkpt>
      <trkpt lat="44.75425" lon="0.75168">
        <ele>156</ele>
        <time>2009-01-15T14:19:40Z</time>
      </trkpt>
      <trkpt lat="44.754" lon="0.75163">
        <ele>156</ele>
        <time>2009-01-15T14:19:44Z</time>
      </trkpt>
      <trkpt lat="44.7537" lon="0.75155">
        <ele>157</ele>
        <time>2009-01-15T14:19:47Z</time>
      </trkpt>
      <trkpt lat="44.75353" lon="0.75148">
        <ele>158</ele>
        <time>2009-01-15T14:19:49Z</time>
      </trkpt>
      <trkpt lat="44.75333" lon="0.7514">
        <ele>158</ele>
        <time>2009-01-15T14:19:51Z</time>
      </trkpt>
      <trkpt lat="44.75305" lon="0.7513">
        <ele>158</ele>
        <time>2009-01-15T14:19:54Z</time>
      </trkpt>
      <trkpt lat="44.75288" lon="0.75123">
        <ele>158</ele>
        <time>2009-01-15T14:19:56Z</time>
      </trkpt>
      <trkpt lat="44.75265" lon="0.75108">
        <ele>158</ele>
        <time>2009-01-15T14:19:59Z</time>
      </trkpt>
      <trkpt lat="44.75243" lon="0.7509">
        <ele>158</ele>
        <time>2009-01-15T14:20:02Z</time>
      </trkpt>
      <trkpt lat="44.7522" lon="0.75075">
        <ele>160</ele>
        <time>2009-01-15T14:20:05Z</time>
      </trkpt>
      <trkpt lat="44.752" lon="0.75063">
        <ele>161</ele>
        <time>2009-01-15T14:20:08Z</time>
      </trkpt>
      <trkpt lat="44.7518" lon="0.7505">
        <ele>162</ele>
        <time>2009-01-15T14:20:12Z</time>
      </trkpt>
      <trkpt lat="44.75163" lon="0.75035">
        <ele>162</ele>
        <time>2009-01-15T14:20:19Z</time>
      </trkpt>
      <trkpt lat="44.75145" lon="0.75015">
        <ele>162</ele>
        <time>2009-01-15T14:20:23Z</time>
      </trkpt>
      <trkpt lat="44.75133" lon="0.74995">
        <ele>162</ele>
        <time>2009-01-15T14:20:26Z</time>
      </trkpt>
      <trkpt lat="44.75118" lon="0.74978">
        <ele>163</ele>
        <time>2009-01-15T14:20:29Z</time>
      </trkpt>
      <trkpt lat="44.75103" lon="0.7496">
        <ele>162</ele>
        <time>2009-01-15T14:20:32Z</time>
      </trkpt>
      <trkpt lat="44.75085" lon="0.74943">
        <ele>162</ele>
        <time>2009-01-15T14:20:36Z</time>
      </trkpt>
      <trkpt lat="44.75068" lon="0.74925">
        <ele>163</ele>
        <time>2009-01-15T14:20:39Z</time>
      </trkpt>
      <trkpt lat="44.7505" lon="0.74913">
        <ele>163</ele>
        <time>2009-01-15T14:20:42Z</time>
      </trkpt>
      <trkpt lat="44.7503" lon="0.74905">
        <ele>163</ele>
        <time>2009-01-15T14:20:45Z</time>
      </trkpt>
      <trkpt lat="44.7501" lon="0.74898">
        <ele>163</ele>
        <time>2009-01-15T14:20:47Z</time>
      </trkpt>
      <trkpt lat="44.7499" lon="0.74888">
        <ele>162</ele>
        <time>2009-01-15T14:20:51Z</time>
      </trkpt>
      <trkpt lat="44.74975" lon="0.74873">
        <ele>162</ele>
        <time>2009-01-15T14:20:55Z</time>
      </trkpt>
      <trkpt lat="44.7496" lon="0.74858">
        <ele>160</ele>
        <time>2009-01-15T14:20:59Z</time>
      </trkpt>
      <trkpt lat="44.74943" lon="0.74843">
        <ele>160</ele>
        <time>2009-01-15T14:21:03Z</time>
      </trkpt>
      <trkpt lat="44.74923" lon="0.74828">
        <ele>160</ele>
        <time>2009-01-15T14:21:08Z</time>
      </trkpt>
      <trkpt lat="44.74908" lon="0.74813">
        <ele>159</ele>
        <time>2009-01-15T14:21:11Z</time>
      </trkpt>
      <trkpt lat="44.74888" lon="0.74798">
        <ele>157</ele>
        <time>2009-01-15T14:21:14Z</time>
      </trkpt>
      <trkpt lat="44.74865" lon="0.7478">
        <ele>157</ele>
        <time>2009-01-15T14:21:17Z</time>
      </trkpt>
      <trkpt lat="44.74845" lon="0.74763">
        <ele>157</ele>
        <time>2009-01-15T14:21:20Z</time>
      </trkpt>
      <trkpt lat="44.74825" lon="0.74745">
        <ele>158</ele>
        <time>2009-01-15T14:21:24Z</time>
      </trkpt>
      <trkpt lat="44.74808" lon="0.7473">
        <ele>159</ele>
        <time>2009-01-15T14:21:27Z</time>
      </trkpt>
      <trkpt lat="44.7479" lon="0.74715">
        <ele>160</ele>
        <time>2009-01-15T14:21:30Z</time>
      </trkpt>
      <trkpt lat="44.74773" lon="0.747">
        <ele>160</ele>
        <time>2009-01-15T14:21:33Z</time>
      </trkpt>
      <trkpt lat="44.74753" lon="0.74685">
        <ele>160</ele>
        <time>2009-01-15T14:21:36Z</time>
      </trkpt>
      <trkpt lat="44.74733" lon="0.7467">
        <ele>161</ele>
        <time>2009-01-15T14:21:39Z</time>
      </trkpt>
      <trkpt lat="44.74715" lon="0.74655">
        <ele>162</ele>
        <time>2009-01-15T14:21:42Z</time>
      </trkpt>
      <trkpt lat="44.74695" lon="0.7464">
        <ele>162</ele>
        <time>2009-01-15T14:21:46Z</time>
      </trkpt>
      <trkpt lat="44.74678" lon="0.74628">
        <ele>163</ele>
        <time>2009-01-15T14:22:16Z</time>
      </trkpt>
      <trkpt lat="44.7466" lon="0.74613">
        <ele>164</ele>
        <time>2009-01-15T14:22:21Z</time>
      </trkpt>
      <trkpt lat="44.7464" lon="0.74598">
        <ele>166</ele>
        <time>2009-01-15T14:22:25Z</time>
      </trkpt>
      <trkpt lat="44.74623" lon="0.7458">
        <ele>166</ele>
        <time>2009-01-15T14:22:29Z</time>
      </trkpt>
      <trkpt lat="44.74608" lon="0.74558">
        <ele>166</ele>
        <time>2009-01-15T14:22:33Z</time>
      </trkpt>
      <trkpt lat="44.7459" lon="0.74533">
        <ele>167</ele>
        <time>2009-01-15T14:22:37Z</time>
      </trkpt>
      <trkpt lat="44.74575" lon="0.7451">
        <ele>166</ele>
        <time>2009-01-15T14:22:41Z</time>
      </trkpt>
      <trkpt lat="44.74558" lon="0.74485">
        <ele>165</ele>
        <time>2009-01-15T14:22:45Z</time>
      </trkpt>
      <trkpt lat="44.74543" lon="0.74463">
        <ele>164</ele>
        <time>2009-01-15T14:22:48Z</time>
      </trkpt>
      <trkpt lat="44.7453" lon="0.74443">
        <ele>164</ele>
        <time>2009-01-15T14:22:51Z</time>
      </trkpt>
      <trkpt lat="44.74518" lon="0.74423">
        <ele>163</ele>
        <time>2009-01-15T14:22:54Z</time>
      </trkpt>
      <trkpt lat="44.74503" lon="0.74403">
        <ele>163</ele>
        <time>2009-01-15T14:22:57Z</time>
      </trkpt>
      <trkpt lat="44.74488" lon="0.74385">
        <ele>163</ele>
        <time>2009-01-15T14:23:09Z</time>
      </trkpt>
      <trkpt lat="44.7447" lon="0.74373">
        <ele>162</ele>
        <time>2009-01-15T14:23:14Z</time>
      </trkpt>
      <trkpt lat="44.74455" lon="0.74358">
        <ele>162</ele>
        <time>2009-01-15T14:23:19Z</time>
      </trkpt>
      <trkpt lat="44.74438" lon="0.74343">
        <ele>162</ele>
        <time>2009-01-15T14:23:24Z</time>
      </trkpt>
      <trkpt lat="44.74423" lon="0.74328">
        <ele>162</ele>
        <time>2009-01-15T14:23:29Z</time>
      </trkpt>
      <trkpt lat="44.74405" lon="0.74313">
        <ele>162</ele>
        <time>2009-01-15T14:23:34Z</time>
      </trkpt>
      <trkpt lat="44.74388" lon="0.74298">
        <ele>163</ele>
        <time>2009-01-15T14:23:39Z</time>
      </trkpt>
      <trkpt lat="44.7437" lon="0.74283">
        <ele>162</ele>
        <time>2009-01-15T14:23:46Z</time>
      </trkpt>
      <trkpt lat="44.74355" lon="0.74268">
        <ele>161</ele>
        <time>2009-01-15T14:23:51Z</time>
      </trkpt>
    </trkseg>
  </trk>
</gpx>